Map

Track Data

SID SEASON NUMBER BASIN SUBBASIN NAME ISO_TIME NATURE LAT LON WMO_WIND WMO_PRES WMO_AGENCY TRACK_TYPE DIST2LAND LANDFALL IFLAG USA_AGENCY USA_ATCF_ID USA_LAT USA_LON USA_RECORD USA_STATUS USA_WIND USA_PRES USA_SSHS USA_R34_NE USA_R34_SE USA_R34_SW USA_R34_NW USA_R50_NE USA_R50_SE USA_R50_SW USA_R50_NW USA_R64_NE USA_R64_SE USA_R64_SW USA_R64_NW USA_POCI USA_ROCI USA_RMW USA_EYE TOKYO_LAT TOKYO_LON TOKYO_GRADE TOKYO_WIND TOKYO_PRES TOKYO_R50_DIR TOKYO_R50_LONG TOKYO_R50_SHORT TOKYO_R30_DIR TOKYO_R30_LONG TOKYO_R30_SHORT TOKYO_LAND CMA_LAT CMA_LON CMA_CAT CMA_WIND CMA_PRES HKO_LAT HKO_LON HKO_CAT HKO_WIND HKO_PRES NEWDELHI_LAT NEWDELHI_LON NEWDELHI_GRADE NEWDELHI_WIND NEWDELHI_PRES NEWDELHI_CI NEWDELHI_DP NEWDELHI_POCI REUNION_LAT REUNION_LON REUNION_TYPE REUNION_WIND REUNION_PRES REUNION_TNUM REUNION_CI REUNION_RMW REUNION_R34_NE REUNION_R34_SE REUNION_R34_SW REUNION_R34_NW REUNION_R50_NE REUNION_R50_SE REUNION_R50_SW REUNION_R50_NW REUNION_R64_NE REUNION_R64_SE REUNION_R64_SW REUNION_R64_NW BOM_LAT BOM_LON BOM_TYPE BOM_WIND BOM_PRES BOM_TNUM BOM_CI BOM_RMW BOM_R34_NE BOM_R34_SE BOM_R34_SW BOM_R34_NW BOM_R50_NE BOM_R50_SE BOM_R50_SW BOM_R50_NW BOM_R64_NE BOM_R64_SE BOM_R64_SW BOM_R64_NW BOM_ROCI BOM_POCI BOM_EYE BOM_POS_METHOD BOM_PRES_METHOD NADI_LAT NADI_LON NADI_CAT NADI_WIND NADI_PRES WELLINGTON_LAT WELLINGTON_LON WELLINGTON_WIND WELLINGTON_PRES DS824_LAT DS824_LON DS824_STAGE DS824_WIND DS824_PRES TD9636_LAT TD9636_LON TD9636_STAGE TD9636_WIND TD9636_PRES TD9635_LAT TD9635_LON TD9635_WIND TD9635_PRES TD9635_ROCI NEUMANN_LAT NEUMANN_LON NEUMANN_CLASS NEUMANN_WIND NEUMANN_PRES MLC_LAT MLC_LON MLC_CLASS MLC_WIND MLC_PRES USA_GUST BOM_GUST BOM_GUST_PER REUNION_GUST REUNION_GUST_PER USA_SEAHGT USA_SEARAD_NE USA_SEARAD_SE USA_SEARAD_SW USA_SEARAD_NW STORM_SPEED STORM_DIR
1954259N20253 1954 63 EP MM NOT_NAMED 1954-09-15 12:00:00 TS 19.6000 -107.500 45 hurdat_epa main 208 208 O________OO___ hurdat_epa EP071954 19.6000 -107.500 TS 45 0 19.6000 -107.500 TC 45 19.6000 -107.500 2 12 301
1954259N20253 1954 63 EP MM NOT_NAMED 1954-09-15 15:00:00 TS 19.9101 -108.057 main 256 254 P________PP___ EP071954 19.9104 -108.062 TS 45 0 19.9104 -108.062 TC 45 19.9093 -108.035 2 12 300
1954259N20253 1954 63 EP MM NOT_NAMED 1954-09-15 18:00:00 TS 20.1988 -108.591 45 hurdat_epa main 303 288 O________OP___ hurdat_epa EP071954 20.2000 -108.600 TS 45 0 20.2000 -108.600 TC 45 20.1941 -108.557 2 11 299
1954259N20253 1954 63 EP MM NOT_NAMED 1954-09-15 21:00:00 TS 20.4423 -109.080 main 288 259 P________PP___ EP071954 20.4449 -109.088 TS 45 0 20.4449 -109.088 TC 45 20.4319 -109.051 2 9 295
1954259N20253 1954 63 EP MM NOT_NAMED 1954-09-16 00:00:00 TS 20.6000 -109.500 45 hurdat_epa main 259 257 O________OO___ hurdat_epa EP071954 20.6000 -109.500 TS 45 0 20.6000 -109.500 TC 45 20.6000 -109.500 2 7 285
1954259N20253 1954 63 EP MM NOT_NAMED 1954-09-16 03:00:00 TS 20.6292 -109.836 main 257 257 P________PP___ EP071954 20.6148 -109.823 TS 45 0 20.6148 -109.823 TC 45 20.6867 -109.891 2 6 272
1954259N20253 1954 63 EP MM NOT_NAMED 1954-09-16 06:00:00 TS 20.6244 -110.124 45 hurdat_epa main 257 247 O________OP___ hurdat_epa EP071954 20.6000 -110.100 TS 45 0 20.6000 -110.100 TC 45 20.7220 -110.221 2 6 276
1954259N20253 1954 63 EP MM NOT_NAMED 1954-09-16 09:00:00 TS 20.6913 -110.442 main 249 242 P________PP___ EP071954 20.6776 -110.430 TS 45 0 20.6776 -110.430 TC 45 20.7463 -110.491 2 6 288
1954259N20253 1954 63 EP MM NOT_NAMED 1954-09-16 12:00:00 TS 20.8000 -110.700 45 hurdat_epa main 245 238 O________OO___ hurdat_epa EP071954 20.8000 -110.700 TS 45 0 20.8000 -110.700 TC 45 20.8000 -110.700 2 4 304
1954259N20253 1954 63 EP MM NOT_NAMED 1954-09-16 15:00:00 TS 20.9324 -110.831 main 238 221 P________PP___ EP071954 20.9349 -110.830 TS 45 0 20.9349 -110.830 TC 45 20.9224 -110.834 2 4 327
1954259N20253 1954 63 EP MM NOT_NAMED 1954-09-16 18:00:00 TS 21.0964 -110.903 45 hurdat_epa main 221 206 O________OP___ hurdat_epa EP071954 21.1000 -110.900 TS 45 0 21.1000 -110.900 TC 45 21.0819 -110.916 2 4 337
1954259N20253 1954 63 EP MM NOT_NAMED 1954-09-16 21:00:00 TS 21.2771 -110.986 main 206 193 P________PP___ EP071954 21.2775 -110.985 TS 45 0 21.2775 -110.985 TC 45 21.2755 -110.990 2 4 336
1954259N20253 1954 63 EP MM NOT_NAMED 1954-09-17 00:00:00 TS 21.5000 -111.100 45 hurdat_epa main 193 181 O________OO___ hurdat_epa EP071954 21.5000 -111.100 TS 45 0 21.5000 -111.100 TC 45 21.5000 -111.100 2 6 332
1954259N20253 1954 63 EP MM NOT_NAMED 1954-09-17 03:00:00 TS 21.7962 -111.276 main 181 174 P________PP___ EP071954 21.7925 -111.270 TS 45 0 21.7925 -111.270 TC 45 21.8113 -111.302 2 7 328
1954259N20253 1954 63 EP MM NOT_NAMED 1954-09-17 06:00:00 TS 22.1080 -111.509 45 hurdat_epa main 178 177 O________OP___ hurdat_epa EP071954 22.1000 -111.500 TS 45 0 22.1000 -111.500 TC 45 22.1401 -111.546 2 8 322
1954259N20253 1954 63 EP MM NOT_NAMED 1954-09-17 09:00:00 TS 22.4068 -111.797 main 190 188 P________PP___ EP071954 22.4026 -111.792 TS 45 0 22.4026 -111.792 TC 45 22.4238 -111.817 2 7 312
1954259N20253 1954 63 EP MM NOT_NAMED 1954-09-17 12:00:00 TS 22.6000 -112.100 45 hurdat_epa main 196 196 O________OO___ hurdat_epa EP071954 22.6000 -112.100 TS 45 0 22.6000 -112.100 TC 45 22.6000 -112.100 2 5 292
1954259N20253 1954 63 EP MM NOT_NAMED 1954-09-17 15:00:00 TS 22.6110 -112.346 main 207 207 P________PP___ EP071954 22.6174 -112.350 TS 45 0 22.6174 -112.350 TC 45 22.5853 -112.332 2 5 257
1954259N20253 1954 63 EP MM NOT_NAMED 1954-09-17 18:00:00 TS 22.4923 -112.595 45 hurdat_epa main 235 235 O________OP___ hurdat_epa EP071954 22.5000 -112.600 TS 45 0 22.5000 -112.600 TC 45 22.4615 -112.576 2 6 237
1954259N20253 1954 63 EP MM NOT_NAMED 1954-09-17 21:00:00 TS 22.3023 -112.867 main 269 269 P________PP___ EP071954 22.3073 -112.870 TS 45 0 22.3073 -112.870 TC 45 22.2820 -112.857 2 7 235
1954259N20253 1954 63 EP MM NOT_NAMED 1954-09-18 00:00:00 TS 22.1000 -113.200 45 hurdat_epa main 303 303 O________OO___ hurdat_epa EP071954 22.1000 -113.200 TS 45 0 22.1000 -113.200 TC 45 22.1000 -113.200 2 8 246
1954259N20253 1954 63 EP MM NOT_NAMED 1954-09-18 03:00:00 TS 21.9882 -113.620 main 334 334 P________PP___ EP071954 21.9849 -113.612 TS 45 0 21.9849 -113.612 TC 45 22.0016 -113.651 2 9 257
1954259N20253 1954 63 EP MM NOT_NAMED 1954-09-18 06:00:00 TS 21.9017 -114.112 45 hurdat_epa main 373 373 O________OP___ hurdat_epa EP071954 21.9000 -114.100 TS 45 0 21.9000 -114.100 TC 45 21.9084 -114.162 2 10 259
1954259N20253 1954 63 EP MM NOT_NAMED 1954-09-18 09:00:00 TS 21.8083 -114.664 main 418 418 P________PP___ EP071954 21.8077 -114.657 TS 45 0 21.8077 -114.657 TC 45 21.8109 -114.692 2 10 259
1954259N20253 1954 63 EP MM NOT_NAMED 1954-09-18 12:00:00 TS 21.7000 -115.200 45 hurdat_epa main 461 461 O________OO___ hurdat_epa EP071954 21.7000 -115.200 TS 45 0 21.7000 -115.200 TC 45 21.7000 -115.200 2 9 254
1954259N20253 1954 63 EP MM NOT_NAMED 1954-09-18 15:00:00 TS 21.5536 -115.621 main 497 497 P________PP___ EP071954 21.5572 -115.622 TS 45 0 21.5572 -115.622 TC 45 21.5391 -115.617 2 8 248
1954259N20253 1954 63 EP MM NOT_NAMED 1954-09-18 18:00:00 TS 21.3938 -116.002 45 hurdat_epa main 543 543 O________OP___ hurdat_epa EP071954 21.4000 -116.000 TS 45 0 21.4000 -116.000 TC 45 21.3688 -116.008 2 8 245
1954259N20253 1954 63 EP MM NOT_NAMED 1954-09-18 21:00:00 TS 21.2247 -116.393 main 588 588 P________PP___ EP071954 21.2274 -116.393 TS 45 0 21.2274 -116.393 TC 45 21.2142 -116.395 2 8 248
1954259N20253 1954 63 EP MM NOT_NAMED 1954-09-19 00:00:00 TS 21.1000 -116.800 45 981 hurdat_epa main 626 626 O________OO___ hurdat_epa EP071954 21.1000 -116.800 TS 45 981 0 21.1000 -116.800 TC 45 981 21.1000 -116.800 2 8 259
1954259N20253 1954 63 EP MM NOT_NAMED 1954-09-19 03:00:00 TS 21.0740 -117.235 main 657 657 P________PP___ EP071954 21.0774 -117.235 TS 45 0 21.0774 -117.235 TC 45 21.0605 -117.237 2 8 269
1954259N20253 1954 63 EP MM NOT_NAMED 1954-09-19 06:00:00 TS 21.0924 -117.699 45 hurdat_epa main 698 698 O________OP___ hurdat_epa EP071954 21.1000 -117.700 TS 45 0 21.1000 -117.700 TC 45 21.0618 -117.697 2 9 271
1954259N20253 1954 63 EP MM NOT_NAMED 1954-09-19 09:00:00 TS 21.0963 -118.179 main 740 740 P________PP___ EP071954 21.0998 -118.178 TS 45 0 21.0998 -118.178 TC 45 21.0822 -118.183 2 9 270
1954259N20253 1954 63 EP MM NOT_NAMED 1954-09-19 12:00:00 TS 21.1000 -118.700 45 hurdat_epa main 783 783 O________OO___ hurdat_epa EP071954 21.1000 -118.700 TS 45 0 21.1000 -118.700 TC 45 21.1000 -118.700 2 10 270
1954259N20253 1954 63 EP MM NOT_NAMED 1954-09-19 15:00:00 TS 21.1034 -119.291 main 835 835 P________PP___ EP071954 21.1075 -119.292 TS 45 0 21.1075 -119.292 TC 45 21.0869 -119.283 2 11 270
1954259N20253 1954 63 EP MM NOT_NAMED 1954-09-19 18:00:00 TS 21.0932 -119.898 45 hurdat_epa main 880 880 O________OP___ hurdat_epa EP071954 21.1000 -119.900 TS 45 0 21.1000 -119.900 TC 45 21.0660 -119.888 2 11 267
1954259N20253 1954 63 EP MM NOT_NAMED 1954-09-19 21:00:00 TS 21.0534 -120.485 main 920 920 P________PP___ EP071954 21.0575 -120.488 TS 45 0 21.0575 -120.488 TC 45 21.0369 -120.473 2 10 265
1954259N20253 1954 63 EP MM NOT_NAMED 1954-09-20 00:00:00 TS 21.0000 -121.000 45 hurdat_epa main 963 963 O________OO___ hurdat_epa EP071954 21.0000 -121.000 TS 45 0 21.0000 -121.000 TC 45 21.0000 -121.000 2 9 263
1954259N20253 1954 63 EP MM NOT_NAMED 1954-09-20 03:00:00 TS 20.9453 -121.388 main 998 998 P________PP___ EP071954 20.9497 -121.380 TS 45 0 20.9497 -121.380 TC 45 20.9278 -121.419 2 7 261
1954259N20253 1954 63 EP MM NOT_NAMED 1954-09-20 06:00:00 TS 20.8908 -121.715 45 hurdat_epa main 1018 1018 O________OP___ hurdat_epa EP071954 20.9000 -121.700 TS 45 0 20.9000 -121.700 TC 45 20.8538 -121.776 2 6 259
1954259N20253 1954 63 EP MM NOT_NAMED 1954-09-20 09:00:00 TS 20.8226 -122.065 main 1054 1054 P________PP___ EP071954 20.8275 -122.058 TS 45 0 20.8275 -122.058 TC 45 20.8030 -122.094 2 6 262
1954259N20253 1954 63 EP MM NOT_NAMED 1954-09-20 12:00:00 TS 20.8000 -122.400 45 hurdat_epa main 1074 1074 O________OO___ hurdat_epa EP071954 20.8000 -122.400 TS 45 0 20.8000 -122.400 TC 45 20.8000 -122.400 2 6 276
1954259N20253 1954 63 EP MM NOT_NAMED 1954-09-20 15:00:00 TS 20.8813 -122.706 main 1088 1088 P________PP___ EP071954 20.8699 -122.700 TS 45 0 20.8699 -122.700 TC 45 20.9272 -122.731 2 6 291
1954259N20253 1954 63 EP MM NOT_NAMED 1954-09-20 18:00:00 TS 21.0189 -123.011 45 hurdat_epa main 1102 1102 O________OP___ hurdat_epa EP071954 21.0000 -123.000 TS 45 0 21.0000 -123.000 TC 45 21.0947 -123.056 2 7 298
1954259N20253 1954 63 EP MM NOT_NAMED 1954-09-20 21:00:00 TS 21.1919 -123.343 main 1109 1109 P________PP___ EP071954 21.1799 -123.335 TS 45 0 21.1799 -123.335 TC 45 21.2398 -123.378 2 7 294
1954259N20253 1954 63 EP MM NOT_NAMED 1954-09-21 00:00:00 TS 21.3000 -123.700 45 hurdat_epa main 1133 1133 O________OO___ hurdat_epa EP071954 21.3000 -123.700 TS 45 0 21.3000 -123.700 TC 45 21.3000 -123.700 2 7 276
1954259N20253 1954 63 EP MM NOT_NAMED 1954-09-21 03:00:00 TS 21.2600 -124.097 main 1164 1164 P________PP___ EP071954 21.2676 -124.115 TS 45 0 21.2676 -124.115 TC 45 21.2294 -124.024 2 7 254
1954259N20253 1954 63 EP MM NOT_NAMED 1954-09-21 06:00:00 TS 21.0896 -124.470 45 hurdat_epa main 1210 1210 O________OP___ hurdat_epa EP071954 21.1000 -124.500 TS 45 0 21.1000 -124.500 TC 45 21.0480 -124.350 2 8 235
1954259N20253 1954 63 EP MM NOT_NAMED 1954-09-21 09:00:00 TS 20.8205 -124.761 main 1256 1256 P________PP___ EP071954 20.8274 -124.783 TS 45 0 20.8274 -124.783 TC 45 20.7927 -124.675 2 8 220
1954259N20253 1954 63 EP MM NOT_NAMED 1954-09-21 12:00:00 TS 20.5000 -125.000 45 hurdat_epa main 1293 O________OO___ hurdat_epa EP071954 20.5000 -125.000 TS 45 0 20.5000 -125.000 TC 45 20.5000 -125.000 2 8 215

About IBTrACS Database

This database is a web-friendly format of International Best Track Archive for Climate Stewardship (IBTrACS), a global best track data archive curated by NOAA dating back to 1842.

Updated: 2021-10-27